Terminal Aerodrome Forecast
Issued by NWS Caribou, ME

Home | Current Version | Previous Version | Text Only | Print | Product List | Glossary On
Versions: 1 2 3 4 5 6 7 8 9 10 11 12 13 14 15 16 17 18 19 20 21 22 23 24 25 26 27 28 29 30 31
715
FTUS41 KCAR 290541 AAC
TAFBGR
TAF AMD
KBGR 290541Z 2906/3006 VRB03KT 1/2SM FG VV002
     FM291100 00000KT 5SM BR BKN012
     FM291500 23006KT P6SM VCSH OVC035
     FM291800 24010G18KT P6SM SCT045
     FM292000 24011G21KT P6SM SCT070
     FM292200 28013G23KT P6SM FEW130
     FM300300 32010G19KT P6SM FEW250=

USA.gov is the U.S. government's official web portal to all federal, state and local government web resources and services.